Tiger — 9HA2271 — position and weather

sailwx.info

Track history (hours):
 
Tides and Currents Weather Stations Pressure Air Temp Water Temp Dewpoint Dewpoint Depression Visibility Wind Speed Wind Dir Waves Ship Positions

Tiger

Last reported at 2017-May-15 14:51 UTC. Time now 2017-May-22 19:30 UTC.
Position N 13°25' W 017°52'.

Length 231 m; draft 10 m.

Type: Cargo ship. MMSI: 248223000.

Date/timePositionNaut miles runAvg speedWind from/ knotsBaromVisibWave heightAir tempDewpointWater temp
2017-May-15 14:51N 13°25' W 017°52'618.3
2017-May-15 14:30N 13°31' W 017°54'3618.5
2017-May-15 12:33N 14°06' W 018°02'82118.5
2017-May-13 16:15N 27°32' W 015°15'419.1
2017-May-13 16:00N 27°36' W 015°13'918.7
2017-May-13 15:30N 27°45' W 015°09'919.0
2017-May-13 15:00N 27°54' W 015°06'1019.0
2017-May-13 14:30N 28°03' W 015°02'1919.0
2017-May-13 13:30N 28°21' W 014°55'1019.0
2017-May-13 13:00N 28°30' W 014°52'918.7
2017-May-13 12:30N 28°39' W 014°50'  
2017-May-11 01:27N 43°53' W 006°20'918.8
2017-May-11 00:57N 43°52' W 006°07'918.9
2017-May-11 00:30N 43°51' W 005°55'1018.8
2017-May-10 23:59N 43°50' W 005°42'919.0
2017-May-10 23:30N 43°50' W 005°29'1019.2
2017-May-10 23:00N 43°50' W 005°16'1718.8
2017-May-10 22:05N 43°46' W 004°53'219.0
2017-May-10 22:00N 43°46' W 004°51'265 8.4
2017-May-09 14:33N 48°08' W 005°42'12414.0
2017-May-09 05:41N 49°42' W 003°38'316.4
2017-May-09 05:29N 49°44' W 003°34'816.3
2017-May-09 04:59N 49°48' W 003°23'816.4
2017-May-09 04:30N 49°52' W 003°12'816.8
2017-May-09 04:01N 49°56' W 003°01'917.2
2017-May-09 03:30N 49°59' W 002°49'918.0
2017-May-09 02:59N 50°02' W 002°35'7820.2
2017-May-08 23:07N 50°25' W 000°38'218.9
2017-May-08 22:59N 50°26' W 000°34'918.6
2017-May-08 22:30N 50°28' W 000°20'918.1
2017-May-08 22:01N 50°31' W 000°07'917.5
2017-May-08 21:30N 50°33' E 000°07'917.0
2017-May-08 20:59N 50°36' E 000°20'816.6
2017-May-08 20:31N 50°38' E 000°32'816.5
2017-May-08 20:00N 50°42' E 000°43'917.1
2017-May-08 19:31N 50°47' E 000°54'918.0
2017-May-08 18:59N 50°52' E 001°06'919.3
2017-May-08 18:30N 50°59' E 001°17'1020.7
2017-May-08 18:01N 51°05' E 001°30'1121.1
2017-May-08 17:31N 51°12' E 001°42'1019.5
2017-May-08 17:01N 51°20' E 001°51'816.4
2017-May-08 16:31N 51°24' E 002°02'917.3
2017-May-08 16:01N 51°21' E 002°15'917.5
2017-May-08 15:30N 51°23' E 002°29'817.0
2017-May-08 15:01N 51°23' E 002°42'1414.0
2017-May-08 14:00N 51°24' E 003°05'613.0
2017-May-08 13:30N 51°20' E 003°13'0 0.9
2017-May-08 13:00N 51°20' E 003°13'1 0.8
2017-May-08 11:30N 51°19' E 003°14'0 0.0
2017-May-08 11:00N 51°19' E 003°14'0 0.0
2017-May-08 10:30N 51°19' E 003°14'0 0.0
2017-May-08 10:00N 51°19' E 003°14'0 0.0
2017-May-08 09:30N 51°19' E 003°14'0 0.0
2017-May-08 09:00N 51°19' E 003°14'0 0.0
2017-May-08 08:30N 51°19' E 003°14'0 0.0
2017-May-08 08:00N 51°19' E 003°14'0 0.0
2017-May-08 07:30N 51°19' E 003°14'0 0.0
2017-May-08 06:57N 51°19' E 003°14'0 0.0
2017-May-08 06:30N 51°19' E 003°14'0 0.0
2017-May-08 06:00N 51°19' E 003°14'0 0.0
2017-May-08 05:30N 51°19' E 003°14'0 0.0
2017-May-08 05:00N 51°19' E 003°14'0 0.0
2017-May-08 04:30N 51°19' E 003°14'0 0.0
2017-May-08 04:00N 51°19' E 003°14'0 0.0
2017-May-08 03:30N 51°19' E 003°14'0 0.0
2017-May-08 03:00N 51°19' E 003°14'0 0.0
2017-May-08 02:30N 51°19' E 003°14'0 0.0
2017-May-08 02:00N 51°19' E 003°14'0 0.0
2017-May-08 01:30N 51°19' E 003°14'0 0.0
2017-May-08 01:00N 51°19' E 003°14'0 0.0
2017-May-08 00:30N 51°19' E 003°14'0 0.0
2017-May-08 00:00N 51°19' E 003°14'0 0.0
2017-May-07 23:30N 51°19' E 003°14'0 0.0
2017-May-07 23:00N 51°19' E 003°14'0 0.0
2017-May-07 22:21N 51°19' E 003°14'0 0.0
2017-May-07 22:00N 51°19' E 003°14'0 0.0
2017-May-07 21:30N 51°19' E 003°14'0 0.0
2017-May-07 21:00N 51°19' E 003°14'0 0.0
2017-May-07 20:30N 51°19' E 003°14'0 0.0
2017-May-07 20:00N 51°19' E 003°14'0 0.0
2017-May-07 19:30N 51°19' E 003°14'0 0.0
2017-May-07 19:00N 51°19' E 003°14'0 0.0
2017-May-07 18:30N 51°19' E 003°14'0 0.0
2017-May-07 18:00N 51°19' E 003°14'0 0.0
2017-May-07 17:30N 51°19' E 003°14'0 0.0
2017-May-07 17:00N 51°19' E 003°14'0 0.0
2017-May-07 16:30N 51°19' E 003°14'0 0.0
2017-May-07 16:00N 51°19' E 003°14'0 0.0
2017-May-07 15:30N 51°19' E 003°14'0 0.0
2017-May-07 15:00N 51°19' E 003°14'0 0.0
2017-May-07 14:30N 51°19' E 003°14'0 0.0
2017-May-07 13:30N 51°19' E 003°14'0 0.0
2017-May-07 13:00N 51°19' E 003°14'0 0.0
2017-May-07 12:30N 51°19' E 003°14'0 0.0
2017-May-07 12:00N 51°19' E 003°14'0 0.0
2017-May-07 11:30N 51°19' E 003°14'0 0.0
2017-May-07 11:00N 51°19' E 003°14'0 0.0
2017-May-07 10:30N 51°19' E 003°14'0 0.0
2017-May-07 10:00N 51°19' E 003°14'0 0.0
2017-May-07 09:30N 51°19' E 003°14'1 2.1
2017-May-07 09:01N 51°20' E 003°13'0 0.5
2017-May-07 08:31N 51°20' E 003°13'1 1.7
2017-May-07 08:01N 51°21' E 003°12'611.8
2017-May-07 07:30N 51°24' E 003°05'816.0
2017-May-07 07:00N 51°22' E 002°52'612.7
2017-May-07 06:30N 51°23' E 002°43'815.5
2017-May-07 06:00N 51°31' E 002°41'814.8
2017-May-07 05:29N 51°39' E 002°43'7617.5
2017-May-07 01:08N 52°46' E 003°43'618.0
2017-May-07 00:49N 52°50' E 003°49'618.0
2017-May-07 00:29N 52°55' E 003°54'918.3
2017-May-07 00:00N 52°60' E 004°06'1119.2
2017-May-06 23:26N 53°07' E 004°20'12018.1
2017-May-06 16:48N 53°58' E 007°24'618.1
2017-May-06 16:26N 53°59' E 007°35'715.3
2017-May-06 16:00N 53°55' E 007°44'713.9
2017-May-06 15:30N 53°52' E 007°54'815.8
2017-May-06 15:00N 53°49' E 008°07'1616.4
2017-May-06 14:00N 53°38' E 008°27'510.9
2017-May-06 13:30N 53°34' E 008°33'0 0.9
2017-May-06 13:00N 53°34' E 008°33'0 0.8
2017-May-06 12:28N 53°35' E 008°33'0 0.0
2017-May-06 11:58N 53°35' E 008°33'0 0.0
2017-May-06 11:28N 53°35' E 008°33'0 0.0
2017-May-06 10:58N 53°35' E 008°33'0 0.0
2017-May-06 10:28N 53°35' E 008°33'0 0.0
2017-May-06 09:58N 53°35' E 008°33'0 0.0
2017-May-06 09:28N 53°35' E 008°33'0 0.0
2017-May-06 08:58N 53°35' E 008°33'0 0.0
2017-May-06 08:28N 53°35' E 008°33'0 0.0
2017-May-06 07:58N 53°35' E 008°33'0 0.0
2017-May-06 07:28N 53°35' E 008°33'0 0.0
2017-May-06 06:58N 53°35' E 008°33'0 0.0
2017-May-06 06:28N 53°35' E 008°33'0 0.0
2017-May-06 05:58N 53°35' E 008°33'0 0.0
2017-May-06 05:28N 53°35' E 008°33'0 0.0
2017-May-06 04:58N 53°35' E 008°33'0 0.0
2017-May-06 04:28N 53°35' E 008°33'0 0.0
2017-May-06 03:58N 53°35' E 008°33'0 0.0
2017-May-06 03:28N 53°35' E 008°33'0 0.0
2017-May-06 02:55N 53°35' E 008°33'0 0.0
2017-May-06 02:28N 53°35' E 008°33'0 0.0
2017-May-06 01:58N 53°35' E 008°33'0 0.0
2017-May-06 01:28N 53°35' E 008°33'0 0.0
2017-May-06 00:58N 53°35' E 008°33'0 0.0
2017-May-06 00:28N 53°35' E 008°33'0 0.0
2017-May-05 23:58N 53°35' E 008°33'0 0.0
2017-May-05 23:28N 53°35' E 008°33'0 0.0
2017-May-05 22:58N 53°35' E 008°33'0 0.0
2017-May-05 22:28N 53°35' E 008°33'0 0.0
2017-May-05 21:58N 53°35' E 008°33'0 0.0
2017-May-05 21:28N 53°35' E 008°33'0 0.0
2017-May-05 20:55N 53°35' E 008°33'0 0.0
2017-May-05 20:28N 53°35' E 008°33'0 0.0
2017-May-05 19:58N 53°35' E 008°33'0 0.0
2017-May-05 19:28N 53°35' E 008°33'0 0.0
2017-May-05 18:58N 53°35' E 008°33'0 0.0
2017-May-05 18:28N 53°35' E 008°33'0 0.0
2017-May-05 17:58N 53°35' E 008°33'0 0.0
2017-May-05 17:25N 53°35' E 008°33'0 0.0
2017-May-05 16:58N 53°35' E 008°33'0 0.0
2017-May-05 16:28N 53°35' E 008°33'0 0.0
2017-May-05 15:58N 53°35' E 008°33'0 0.0
2017-May-05 15:25N 53°35' E 008°33'0 0.0
2017-May-05 14:58N 53°35' E 008°33'  
Track history (hours):
 
Tides and Currents Weather Stations Pressure Air Temp Water Temp Dewpoint Dewpoint Depression Visibility Wind Speed Wind Dir Waves Ship Positions

Tiger

Last reported at 2017-May-15 14:51 UTC. Time now 2017-May-22 19:30 UTC.
Position N 13°25' W 017°52'.

Length 231 m; draft 10 m.

Type: Cargo ship. MMSI: 248223000.

Date/timePositionNaut miles runAvg speedWind from/ knotsBaromVisibWave heightAir tempDewpointWater temp
2017-May-15 14:51N 13°25' W 017°52'618.3
2017-May-15 14:30N 13°31' W 017°54'3618.5
2017-May-15 12:33N 14°06' W 018°02'82118.5
2017-May-13 16:15N 27°32' W 015°15'419.1
2017-May-13 16:00N 27°36' W 015°13'918.7
2017-May-13 15:30N 27°45' W 015°09'919.0
2017-May-13 15:00N 27°54' W 015°06'1019.0
2017-May-13 14:30N 28°03' W 015°02'1919.0
2017-May-13 13:30N 28°21' W 014°55'1019.0
2017-May-13 13:00N 28°30' W 014°52'918.7
2017-May-13 12:30N 28°39' W 014°50'  
2017-May-11 01:27N 43°53' W 006°20'918.8
2017-May-11 00:57N 43°52' W 006°07'918.9
2017-May-11 00:30N 43°51' W 005°55'1018.8
2017-May-10 23:59N 43°50' W 005°42'919.0
2017-May-10 23:30N 43°50' W 005°29'1019.2
2017-May-10 23:00N 43°50' W 005°16'1718.8
2017-May-10 22:05N 43°46' W 004°53'219.0
2017-May-10 22:00N 43°46' W 004°51'265 8.4
2017-May-09 14:33N 48°08' W 005°42'12414.0
2017-May-09 05:41N 49°42' W 003°38'316.4
2017-May-09 05:29N 49°44' W 003°34'816.3
2017-May-09 04:59N 49°48' W 003°23'816.4
2017-May-09 04:30N 49°52' W 003°12'816.8
2017-May-09 04:01N 49°56' W 003°01'917.2
2017-May-09 03:30N 49°59' W 002°49'918.0
2017-May-09 02:59N 50°02' W 002°35'7820.2
2017-May-08 23:07N 50°25' W 000°38'218.9
2017-May-08 22:59N 50°26' W 000°34'918.6
2017-May-08 22:30N 50°28' W 000°20'918.1
2017-May-08 22:01N 50°31' W 000°07'917.5
2017-May-08 21:30N 50°33' E 000°07'917.0
2017-May-08 20:59N 50°36' E 000°20'816.6
2017-May-08 20:31N 50°38' E 000°32'816.5
2017-May-08 20:00N 50°42' E 000°43'917.1
2017-May-08 19:31N 50°47' E 000°54'918.0
2017-May-08 18:59N 50°52' E 001°06'919.3
2017-May-08 18:30N 50°59' E 001°17'1020.7
2017-May-08 18:01N 51°05' E 001°30'1121.1
2017-May-08 17:31N 51°12' E 001°42'1019.5
2017-May-08 17:01N 51°20' E 001°51'816.4
2017-May-08 16:31N 51°24' E 002°02'917.3
2017-May-08 16:01N 51°21' E 002°15'917.5
2017-May-08 15:30N 51°23' E 002°29'817.0
2017-May-08 15:01N 51°23' E 002°42'1414.0
2017-May-08 14:00N 51°24' E 003°05'613.0
2017-May-08 13:30N 51°20' E 003°13'0 0.9
2017-May-08 13:00N 51°20' E 003°13'1 0.8
2017-May-08 11:30N 51°19' E 003°14'0 0.0
2017-May-08 11:00N 51°19' E 003°14'0 0.0
2017-May-08 10:30N 51°19' E 003°14'0 0.0
2017-May-08 10:00N 51°19' E 003°14'0 0.0
2017-May-08 09:30N 51°19' E 003°14'0 0.0
2017-May-08 09:00N 51°19' E 003°14'0 0.0
2017-May-08 08:30N 51°19' E 003°14'0 0.0
2017-May-08 08:00N 51°19' E 003°14'0 0.0
2017-May-08 07:30N 51°19' E 003°14'0 0.0
2017-May-08 06:57N 51°19' E 003°14'0 0.0
2017-May-08 06:30N 51°19' E 003°14'0 0.0
2017-May-08 06:00N 51°19' E 003°14'0 0.0
2017-May-08 05:30N 51°19' E 003°14'0 0.0
2017-May-08 05:00N 51°19' E 003°14'0 0.0
2017-May-08 04:30N 51°19' E 003°14'0 0.0
2017-May-08 04:00N 51°19' E 003°14'0 0.0
2017-May-08 03:30N 51°19' E 003°14'0 0.0
2017-May-08 03:00N 51°19' E 003°14'0 0.0
2017-May-08 02:30N 51°19' E 003°14'0 0.0
2017-May-08 02:00N 51°19' E 003°14'0 0.0
2017-May-08 01:30N 51°19' E 003°14'0 0.0
2017-May-08 01:00N 51°19' E 003°14'0 0.0
2017-May-08 00:30N 51°19' E 003°14'0 0.0
2017-May-08 00:00N 51°19' E 003°14'0 0.0
2017-May-07 23:30N 51°19' E 003°14'0 0.0
2017-May-07 23:00N 51°19' E 003°14'0 0.0
2017-May-07 22:21N 51°19' E 003°14'0 0.0
2017-May-07 22:00N 51°19' E 003°14'0 0.0
2017-May-07 21:30N 51°19' E 003°14'0 0.0
2017-May-07 21:00N 51°19' E 003°14'0 0.0
2017-May-07 20:30N 51°19' E 003°14'0 0.0
2017-May-07 20:00N 51°19' E 003°14'0 0.0
2017-May-07 19:30N 51°19' E 003°14'0 0.0
2017-May-07 19:00N 51°19' E 003°14'0 0.0
2017-May-07 18:30N 51°19' E 003°14'0 0.0
2017-May-07 18:00N 51°19' E 003°14'0 0.0
2017-May-07 17:30N 51°19' E 003°14'0 0.0
2017-May-07 17:00N 51°19' E 003°14'0 0.0
2017-May-07 16:30N 51°19' E 003°14'0 0.0
2017-May-07 16:00N 51°19' E 003°14'0 0.0
2017-May-07 15:30N 51°19' E 003°14'0 0.0
2017-May-07 15:00N 51°19' E 003°14'0 0.0
2017-May-07 14:30N 51°19' E 003°14'0 0.0
2017-May-07 13:30N 51°19' E 003°14'0 0.0
2017-May-07 13:00N 51°19' E 003°14'0 0.0
2017-May-07 12:30N 51°19' E 003°14'0 0.0
2017-May-07 12:00N 51°19' E 003°14'0 0.0
2017-May-07 11:30N 51°19' E 003°14'0 0.0
2017-May-07 11:00N 51°19' E 003°14'0 0.0
2017-May-07 10:30N 51°19' E 003°14'0 0.0
2017-May-07 10:00N 51°19' E 003°14'0 0.0
2017-May-07 09:30N 51°19' E 003°14'1 2.1
2017-May-07 09:01N 51°20' E 003°13'0 0.5
2017-May-07 08:31N 51°20' E 003°13'1 1.7
2017-May-07 08:01N 51°21' E 003°12'611.8
2017-May-07 07:30N 51°24' E 003°05'816.0
2017-May-07 07:00N 51°22' E 002°52'612.7
2017-May-07 06:30N 51°23' E 002°43'815.5
2017-May-07 06:00N 51°31' E 002°41'814.8
2017-May-07 05:29N 51°39' E 002°43'7617.5
2017-May-07 01:08N 52°46' E 003°43'618.0
2017-May-07 00:49N 52°50' E 003°49'618.0
2017-May-07 00:29N 52°55' E 003°54'918.3
2017-May-07 00:00N 52°60' E 004°06'1119.2
2017-May-06 23:26N 53°07' E 004°20'12018.1
2017-May-06 16:48N 53°58' E 007°24'618.1
2017-May-06 16:26N 53°59' E 007°35'715.3
2017-May-06 16:00N 53°55' E 007°44'713.9
2017-May-06 15:30N 53°52' E 007°54'815.8
2017-May-06 15:00N 53°49' E 008°07'1616.4
2017-May-06 14:00N 53°38' E 008°27'510.9
2017-May-06 13:30N 53°34' E 008°33'0 0.9
2017-May-06 13:00N 53°34' E 008°33'0 0.8
2017-May-06 12:28N 53°35' E 008°33'0 0.0
2017-May-06 11:58N 53°35' E 008°33'0 0.0
2017-May-06 11:28N 53°35' E 008°33'0 0.0
2017-May-06 10:58N 53°35' E 008°33'0 0.0
2017-May-06 10:28N 53°35' E 008°33'0 0.0
2017-May-06 09:58N 53°35' E 008°33'0 0.0
2017-May-06 09:28N 53°35' E 008°33'0 0.0
2017-May-06 08:58N 53°35' E 008°33'0 0.0
2017-May-06 08:28N 53°35' E 008°33'0 0.0
2017-May-06 07:58N 53°35' E 008°33'0 0.0
2017-May-06 07:28N 53°35' E 008°33'0 0.0
2017-May-06 06:58N 53°35' E 008°33'0 0.0
2017-May-06 06:28N 53°35' E 008°33'0 0.0
2017-May-06 05:58N 53°35' E 008°33'0 0.0
2017-May-06 05:28N 53°35' E 008°33'0 0.0
2017-May-06 04:58N 53°35' E 008°33'0 0.0
2017-May-06 04:28N 53°35' E 008°33'0 0.0
2017-May-06 03:58N 53°35' E 008°33'0 0.0
2017-May-06 03:28N 53°35' E 008°33'0 0.0
2017-May-06 02:55N 53°35' E 008°33'0 0.0
2017-May-06 02:28N 53°35' E 008°33'0 0.0
2017-May-06 01:58N 53°35' E 008°33'0 0.0
2017-May-06 01:28N 53°35' E 008°33'0 0.0
2017-May-06 00:58N 53°35' E 008°33'0 0.0
2017-May-06 00:28N 53°35' E 008°33'0 0.0
2017-May-05 23:58N 53°35' E 008°33'0 0.0
2017-May-05 23:28N 53°35' E 008°33'0 0.0
2017-May-05 22:58N 53°35' E 008°33'0 0.0
2017-May-05 22:28N 53°35' E 008°33'0 0.0
2017-May-05 21:58N 53°35' E 008°33'0 0.0
2017-May-05 21:28N 53°35' E 008°33'0 0.0
2017-May-05 20:55N 53°35' E 008°33'0 0.0
2017-May-05 20:28N 53°35' E 008°33'0 0.0
2017-May-05 19:58N 53°35' E 008°33'0 0.0
2017-May-05 19:28N 53°35' E 008°33'0 0.0
2017-May-05 18:58N 53°35' E 008°33'0 0.0
2017-May-05 18:28N 53°35' E 008°33'0 0.0
2017-May-05 17:58N 53°35' E 008°33'0 0.0
2017-May-05 17:25N 53°35' E 008°33'0 0.0
2017-May-05 16:58N 53°35' E 008°33'0 0.0
2017-May-05 16:28N 53°35' E 008°33'0 0.0
2017-May-05 15:58N 53°35' E 008°33'0 0.0
2017-May-05 15:25N 53°35' E 008°33'0 0.0
2017-May-05 14:58N 53°35' E 008°33'  

Dump ship's entire track history